| time (UTC) | temp F | wind direction | speed MPH | gust MPH | rain 1hr in | rain 24hr in | rain mn in | humidity % | barometer mb |
| 20260507203053 | 73 | 274 | 7.0 | 13.0 | 0.00 | 0.00 | 0.00 | 29 | 1015.4 |
| 20260507202539 | 73 | 260 | 7.0 | 16.0 | 0.00 | 0.00 | 0.00 | 28 | 1015.5 |
| 20260507202042 | 73 | 256 | 5.0 | 16.0 | 0.00 | 0.00 | 0.00 | 28 | 1015.5 |
| 20260507201556 | 73 | 251 | 9.0 | 16.0 | 0.00 | 0.00 | 0.00 | 28 | 1015.5 |
| 20260507201038 | 73 | 248 | 9.0 | 16.0 | 0.00 | 0.00 | 0.00 | 28 | 1015.5 |
| 20260507200538 | 73 | 240 | 9.0 | 16.0 | 0.00 | 0.00 | 0.00 | 28 | 1015.5 |
| 20260507200051 | 73 | 246 | 7.0 | 13.0 | 0.00 | 0.00 | 0.00 | 29 | 1015.5 |
| 20260507195537 | 73 | 208 | 8.0 | 12.0 | 0.00 | 0.00 | 0.00 | 29 | 1015.5 |
| 20260507195038 | 73 | 242 | 3.0 | 8.0 | 0.00 | 0.00 | 0.00 | 28 | 1015.6 |
| 20260507194552 | 73 | 251 | 2.0 | 10.0 | 0.00 | 0.00 | 0.00 | 28 | 1015.6 |
| 20260507194038 | 73 | 191 | 5.0 | 11.0 | 0.00 | 0.00 | 0.00 | 29 | 1015.7 |
| 20260507193538 | 73 | 187 | 6.0 | 13.0 | 0.00 | 0.00 | 0.00 | 28 | 1015.8 |
| 20260507193053 | 73 | 206 | 5.0 | 14.0 | 0.00 | 0.00 | 0.00 | 28 | 1015.9 |
| 20260507192538 | 73 | 222 | 4.0 | 14.0 | 0.00 | 0.00 | 0.00 | 29 | 1016.0 |
| 20260507192038 | 73 | 211 | 5.0 | 12.0 | 0.00 | 0.00 | 0.00 | 29 | 1016.0 |
| 20260507191557 | 73 | 215 | 3.0 | 12.0 | 0.00 | 0.00 | 0.00 | 28 | 1016.1 |
| 20260507191039 | 73 | 207 | 3.0 | 14.0 | 0.00 | 0.00 | 0.00 | 28 | 1016.1 |
| 20260507190538 | 73 | 198 | 7.0 | 16.0 | 0.00 | 0.00 | 0.00 | 28 | 1016.2 |
| 20260507190053 | 73 | 179 | 8.0 | 16.0 | 0.00 | 0.00 | 0.00 | 28 | 1016.2 |
| 20260507185538 | 73 | 150 | 1.0 | 12.0 | 0.00 | 0.00 | 0.00 | 28 | 1016.3 |
| 20260507185040 | 73 | 191 | 5.0 | 14.0 | 0.00 | 0.00 | 0.00 | 30 | 1016.3 |
| 20260507184552 | 72 | 134 | 6.0 | 14.0 | 0.00 | 0.00 | 0.00 | 28 | 1016.3 |
| 20260507184037 | 72 | 190 | 6.0 | 14.0 | 0.00 | 0.00 | 0.00 | 28 | 1016.4 |
| 20260507183537 | 72 | 163 | 6.0 | 15.0 | 0.00 | 0.00 | 0.00 | 31 | 1016.4 |
| 20260507183054 | 71 | 218 | 7.0 | 16.0 | 0.00 | 0.00 | 0.00 | 29 | 1016.4 |
| 20260507182539 | 71 | 175 | 8.0 | 16.0 | 0.00 | 0.00 | 0.00 | 29 | 1016.5 |
| 20260507182039 | 71 | 153 | 6.0 | 17.0 | 0.00 | 0.00 | 0.00 | 29 | 1016.4 |
| 20260507181602 | 71 | 178 | 6.0 | 17.0 | 0.00 | 0.00 | 0.00 | 29 | 1016.5 |
| 20260507181038 | 71 | 178 | 6.0 | 16.0 | 0.00 | 0.00 | 0.00 | 30 | 1016.6 |
| 20260507180539 | 70 | 171 | 7.0 | 16.0 | 0.00 | 0.00 | 0.00 | 30 | 1016.7 |
| 20260507180053 | 70 | 167 | 9.0 | 16.0 | 0.00 | 0.00 | 0.00 | 30 | 1016.7 |
| 20260507175539 | 70 | 140 | 8.0 | 16.0 | 0.00 | 0.00 | 0.00 | 31 | 1016.7 |
| 20260507175039 | 69 | 138 | 7.0 | 16.0 | 0.00 | 0.00 | 0.00 | 33 | 1016.7 |
| 20260507174554 | 69 | 154 | 8.0 | 16.0 | 0.00 | 0.00 | 0.00 | 31 | 1016.9 |
| 20260507174040 | 69 | 142 | 8.0 | 17.0 | 0.00 | 0.00 | 0.00 | 33 | 1016.9 |
| 20260507173541 | 68 | 186 | 9.0 | 17.0 | 0.00 | 0.00 | 0.00 | 32 | 1016.9 |
| 20260507173053 | 68 | 360 | 9.0 | 16.0 | 0.00 | 0.00 | 0.00 | 32 | 1017.0 |
| 20260507172539 | 67 | 176 | 9.0 | 18.0 | 0.00 | 0.00 | 0.00 | 32 | 1017.0 |
| 20260507172038 | 67 | 144 | 9.0 | 18.0 | 0.00 | 0.00 | 0.00 | 34 | 1017.0 |
| 20260507171555 | 67 | 163 | 13.0 | 19.0 | 0.00 | 0.00 | 0.00 | 33 | 1017.1 |
| 20260507171039 | 67 | 150 | 11.0 | 19.0 | 0.00 | 0.00 | 0.00 | 34 | 1017.1 |
| 20260507170539 | 67 | 190 | 10.0 | 16.0 | 0.00 | 0.00 | 0.00 | 35 | 1017.1 |
| 20260507170054 | 66 | 151 | 9.0 | 16.0 | 0.00 | 0.00 | 0.00 | 35 | 1017.1 |
| 20260507165538 | 66 | 173 | 7.0 | 17.0 | 0.00 | 0.00 | 0.00 | 38 | 1017.2 |
| 20260507165038 | 66 | 93 | 9.0 | 19.0 | 0.00 | 0.00 | 0.00 | 36 | 1017.3 |
| 20260507164553 | 66 | 160 | 9.0 | 19.0 | 0.00 | 0.00 | 0.00 | 37 | 1017.4 |
| 20260507164045 | 65 | 165 | 10.0 | 19.0 | 0.00 | 0.00 | 0.00 | 37 | 1017.4 |
| 20260507163539 | 65 | 138 | 10.0 | 18.0 | 0.00 | 0.00 | 0.00 | 38 | 1017.4 |
| 20260507163044 | 64 | 143 | 10.0 | 18.0 | 0.00 | 0.00 | 0.00 | 37 | 1017.4 |
| 20260507162538 | 63 | 134 | 9.0 | 18.0 | 0.00 | 0.00 | 0.00 | 37 | 1017.5 |
| 20260507162039 | 63 | 115 | 11.0 | 18.0 | 0.00 | 0.00 | 0.00 | 36 | 1017.5 |
| 20260507161553 | 62 | 117 | 8.0 | 17.0 | 0.00 | 0.00 | 0.00 | 39 | 1017.5 |
| 20260507161041 | 61 | 123 | 8.0 | 17.0 | 0.00 | 0.00 | 0.00 | 40 | 1017.6 |
| 20260507160539 | 61 | 136 | 8.0 | 18.0 | 0.00 | 0.00 | 0.00 | 41 | 1017.5 |
| 20260507160053 | 60 | 120 | 7.0 | 19.0 | 0.00 | 0.00 | 0.00 | 40 | 1017.6 |
| 20260507155538 | 60 | 125 | 10.0 | 19.0 | 0.00 | 0.00 | 0.00 | 39 | 1017.6 |
| 20260507155039 | 60 | 144 | 10.0 | 14.0 | 0.00 | 0.00 | 0.00 | 40 | 1017.6 |
| 20260507154550 | 59 | 134 | 6.0 | 13.0 | 0.00 | 0.00 | 0.00 | 43 | 1017.7 |
| 20260507154039 | 59 | 153 | 6.0 | 13.0 | 0.00 | 0.00 | 0.00 | 42 | 1017.6 |
| 20260507153541 | 59 | 134 | 5.0 | 12.0 | 0.00 | 0.00 | 0.00 | 44 | 1017.8 |
| 20260507153058 | 59 | 113 | 4.0 | 12.0 | 0.00 | 0.00 | 0.00 | 44 | 1017.8 |
| 20260507152539 | 58 | 161 | 8.0 | 17.0 | 0.00 | 0.00 | 0.00 | 44 | 1017.7 |
| 20260507152039 | 58 | 178 | 8.0 | 17.0 | 0.00 | 0.00 | 0.00 | 44 | 1017.7 |
| 20260507151547 | 57 | 148 | 9.0 | 17.0 | 0.00 | 0.00 | 0.00 | 43 | 1017.7 |
| 20260507151040 | 57 | 117 | 8.0 | 17.0 | 0.00 | 0.00 | 0.00 | 43 | 1017.7 |
| 20260507150539 | 56 | 142 | 8.0 | 17.0 | 0.00 | 0.00 | 0.00 | 46 | 1017.7 |
| 20260507150050 | 56 | 138 | 9.0 | 15.0 | 0.00 | 0.00 | 0.00 | 46 | 1017.6 |
| 20260507145539 | 55 | 155 | 6.0 | 13.0 | 0.00 | 0.00 | 0.00 | 49 | 1017.7 |
| 20260507145038 | 54 | 148 | 8.0 | 13.0 | 0.00 | 0.00 | 0.00 | 50 | 1017.7 |
| 20260507144553 | 54 | 155 | 6.0 | 12.0 | 0.00 | 0.00 | 0.00 | 51 | 1017.7 |
| 20260507144039 | 53 | 360 | 4.0 | 8.0 | 0.00 | 0.00 | 0.00 | 53 | 1017.7 |
| 20260507143538 | 53 | 360 | 4.0 | 8.0 | 0.00 | 0.00 | 0.00 | 54 | 1017.7 |
| 20260507143048 | 52 | 360 | 3.0 | 10.0 | 0.00 | 0.00 | 0.00 | 55 | 1017.6 |
| 20260507142538 | 52 | 360 | 3.0 | 10.0 | 0.00 | 0.00 | 0.00 | 55 | 1017.6 |
| 20260507142039 | 51 | 360 | 5.0 | 10.0 | 0.00 | 0.00 | 0.00 | 56 | 1017.6 |
| 20260507141553 | 51 | 141 | 5.0 | 9.0 | 0.00 | 0.00 | 0.00 | 58 | 1017.5 |
| 20260507141038 | 50 | 122 | 4.0 | 9.0 | 0.00 | 0.00 | 0.00 | 59 | 1017.5 |
| 20260507140539 | 50 | 165 | 3.0 | 8.0 | 0.00 | 0.00 | 0.00 | 60 | 1017.6 |
| 20260507140052 | 50 | 360 | 3.0 | 8.0 | 0.00 | 0.00 | 0.00 | 61 | 1017.6 |
| 20260507135541 | 49 | 360 | 2.0 | 6.0 | 0.00 | 0.00 | 0.00 | 60 | 1017.5 |
| 20260507135039 | 49 | 360 | 3.0 | 6.0 | 0.00 | 0.00 | 0.00 | 60 | 1017.4 |
| 20260507134552 | 49 | 360 | 3.0 | 8.0 | 0.00 | 0.00 | 0.00 | 60 | 1017.5 |
| 20260507134038 | 49 | 360 | 2.0 | 8.0 | 0.00 | 0.00 | 0.00 | 61 | 1017.4 |
| 20260507133539 | 48 | 360 | 3.0 | 6.0 | 0.00 | 0.00 | 0.00 | 61 | 1017.3 |
| 20260507133045 | 48 | 360 | 2.0 | 6.0 | 0.00 | 0.00 | 0.00 | 62 | 1017.3 |
| 20260507132538 | 48 | 360 | 3.0 | 8.0 | 0.00 | 0.00 | 0.00 | 62 | 1017.2 |
| 20260507132043 | 48 | 360 | 3.0 | 9.0 | 0.00 | 0.00 | 0.00 | 62 | 1017.2 |
| 20260507131601 | 47 | 360 | 4.0 | 9.0 | 0.00 | 0.00 | 0.00 | 62 | 1017.1 |
| 20260507131038 | 47 | 360 | 5.0 | 9.0 | 0.00 | 0.00 | 0.00 | 63 | 1017.0 |
| 20260507130540 | 47 | 360 | 4.0 | 8.0 | 0.00 | 0.00 | 0.00 | 63 | 1017.0 |
| 20260507130107 | 46 | 360 | 2.0 | 9.0 | 0.00 | 0.00 | 0.00 | 63 | 1017.0 |
| 20260507125545 | 46 | 360 | 4.0 | 9.0 | 0.00 | 0.00 | 0.00 | 64 | 1017.0 |
| 20260507125037 | 46 | 360 | 4.0 | 9.0 | 0.00 | 0.00 | 0.00 | 64 | 1017.1 |
| 20260507124552 | 46 | 360 | 5.0 | 10.0 | 0.00 | 0.00 | 0.00 | 64 | 1017.2 |
| 20260507124039 | 45 | 360 | 5.0 | 10.0 | 0.00 | 0.00 | 0.00 | 65 | 1017.1 |
| 20260507123538 | 45 | 360 | 5.0 | 11.0 | 0.00 | 0.00 | 0.00 | 65 | 1017.1 |
| 20260507123049 | 45 | 360 | 5.0 | 11.0 | 0.00 | 0.00 | 0.00 | 65 | 1017.2 |
| 20260507122538 | 45 | 360 | 6.0 | 11.0 | 0.00 | 0.00 | 0.00 | 66 | 1017.1 |
| 20260507122038 | 45 | 360 | 6.0 | 9.0 | 0.00 | 0.00 | 0.00 | 66 | 1017.2 |
| 20260507121604 | 44 | 360 | 5.0 | 9.0 | 0.00 | 0.00 | 0.00 | 66 | 1017.2 |
| 20260507121039 | 44 | 360 | 4.0 | 6.0 | 0.00 | 0.00 | 0.00 | 66 | 1017.3 |
| 20260507120537 | 44 | 360 | 2.0 | 5.0 | 0.00 | 0.00 | 0.00 | 66 | 1017.3 |
| 20260507120059 | 43 | 94 | 1.0 | 4.0 | 0.00 | 0.00 | 0.00 | 66 | 1017.4 |
| 20260507115537 | 43 | 360 | 2.0 | 5.0 | 0.00 | 0.00 | 0.00 | 66 | 1017.4 |
| 20260507115037 | 43 | 106 | 2.0 | 8.0 | 0.00 | 0.00 | 0.00 | 66 | 1017.3 |
| 20260507114601 | 43 | 115 | 3.0 | 8.0 | 0.00 | 0.00 | 0.00 | 66 | 1017.3 |
| 20260507114038 | 43 | 360 | 4.0 | 8.0 | 0.00 | 0.00 | 0.00 | 66 | 1017.2 |
| 20260507113538 | 43 | 360 | 4.0 | 8.0 | 0.00 | 0.00 | 0.00 | 66 | 1017.3 |
| 20260507113048 | 42 | 360 | 4.0 | 8.0 | 0.00 | 0.00 | 0.00 | 66 | 1017.2 |
| 20260507112540 | 42 | 360 | 3.0 | 6.0 | 0.00 | 0.00 | 0.00 | 65 | 1017.3 |
| 20260507112038 | 42 | 360 | 3.0 | 5.0 | 0.00 | 0.00 | 0.00 | 65 | 1017.2 |
| 20260507111550 | 42 | 360 | 2.0 | 3.0 | 0.00 | 0.00 | 0.00 | 65 | 1017.3 |
| 20260507111039 | 42 | 360 | 1.0 | 3.0 | 0.00 | 0.00 | 0.00 | 65 | 1017.4 |
| 20260507110538 | 42 | 360 | 2.0 | 4.0 | 0.00 | 0.00 | 0.00 | 65 | 1017.3 |
| 20260507110050 | 42 | 360 | 2.0 | 4.0 | 0.00 | 0.00 | 0.00 | 65 | 1017.4 |
| 20260507105537 | 42 | 360 | 2.0 | 4.0 | 0.00 | 0.00 | 0.00 | 65 | 1017.3 |
| 20260507105041 | 42 | 360 | 2.0 | 5.0 | 0.00 | 0.00 | 0.00 | 65 | 1017.5 |
| 20260507104548 | 42 | 360 | 2.0 | 5.0 | 0.00 | 0.00 | 0.00 | 64 | 1017.5 |
| 20260507104038 | 42 | 360 | 3.0 | 5.0 | 0.00 | 0.00 | 0.00 | 64 | 1017.5 |
| 20260507103542 | 42 | 360 | 2.0 | 4.0 | 0.00 | 0.00 | 0.00 | 64 | 1017.5 |
| 20260507103047 | 42 | 360 | 2.0 | 3.0 | 0.00 | 0.00 | 0.00 | 64 | 1017.5 |
| 20260507102538 | 42 | 360 | 1.0 | 3.0 | 0.00 | 0.00 | 0.00 | 63 | 1017.6 |
| 20260507102038 | 43 | 0 | 0.0 | 2.0 | 0.00 | 0.00 | 0.00 | 63 | 1017.5 |
| 20260507101552 | 43 | 360 | 0.0 | 2.0 | 0.00 | 0.00 | 0.00 | 63 | 1017.5 |
| 20260507101037 | 43 | 0 | 0.0 | 2.0 | 0.00 | 0.00 | 0.00 | 63 | 1017.5 |
| 20260507100542 | 43 | 0 | 0.0 | 2.0 | 0.00 | 0.00 | 0.00 | 63 | 1017.5 |
| 20260507100049 | 43 | 0 | 0.0 | 2.0 | 0.00 | 0.00 | 0.00 | 62 | 1017.5 |
| 20260507095535 | 44 | 0 | 0.0 | 0.0 | 0.00 | 0.00 | 0.00 | 62 | 1017.6 |
| 20260507095041 | 44 | 0 | 0.0 | 2.0 | 0.00 | 0.00 | 0.00 | 62 | 1017.5 |
| 20260507094549 | 44 | 0 | 0.0 | 2.0 | 0.00 | 0.00 | 0.00 | 62 | 1017.5 |
| 20260507094038 | 44 | 360 | 1.0 | 2.0 | 0.00 | 0.00 | 0.00 | 62 | 1017.5 |
| 20260507093541 | 45 | 0 | 0.0 | 1.0 | 0.00 | 0.00 | 0.00 | 62 | 1017.6 |
| 20260507093056 | 45 | 0 | 0.0 | 2.0 | 0.00 | 0.00 | 0.00 | 62 | 1017.6 |
| 20260507092539 | 45 | 0 | 0.0 | 2.0 | 0.00 | 0.00 | 0.00 | 61 | 1017.6 |
| 20260507092039 | 45 | 0 | 1.0 | 2.0 | 0.00 | 0.00 | 0.00 | 61 | 1017.7 |
| 20260507091551 | 45 | 360 | 1.0 | 2.0 | 0.00 | 0.00 | 0.00 | 61 | 1017.8 |
| 20260507091039 | 45 | 360 | 0.0 | 3.0 | 0.00 | 0.00 | 0.00 | 62 | 1017.8 |
| 20260507090538 | 45 | 0 | 0.0 | 4.0 | 0.00 | 0.00 | 0.00 | 62 | 1018.0 |
| 20260507090052 | 45 | 135 | 2.0 | 4.0 | 0.00 | 0.00 | 0.00 | 62 | 1018.0 |
| 20260507085539 | 45 | 136 | 2.0 | 5.0 | 0.00 | 0.00 | 0.00 | 62 | 1018.1 |
| 20260507085039 | 45 | 138 | 2.0 | 6.0 | 0.00 | 0.00 | 0.00 | 62 | 1018.2 |
| 20260507084551 | 45 | 360 | 3.0 | 9.0 | 0.00 | 0.00 | 0.00 | 62 | 1018.2 |
| 20260507084038 | 45 | 175 | 4.0 | 9.0 | 0.00 | 0.00 | 0.00 | 62 | 1018.2 |
| 20260507083539 | 44 | 360 | 5.0 | 9.0 | 0.00 | 0.00 | 0.00 | 63 | 1018.2 |
| 20260507083052 | 44 | 360 | 4.0 | 6.0 | 0.00 | 0.00 | 0.00 | 63 | 1018.3 |
| 20260507082540 | 44 | 360 | 4.0 | 6.0 | 0.00 | 0.00 | 0.00 | 63 | 1018.4 |
| 20260507082038 | 44 | 360 | 3.0 | 5.0 | 0.00 | 0.00 | 0.00 | 63 | 1018.4 |
| 20260507081552 | 44 | 360 | 4.0 | 6.0 | 0.00 | 0.00 | 0.00 | 63 | 1018.4 |
| 20260507081041 | 44 | 360 | 4.0 | 6.0 | 0.00 | 0.00 | 0.00 | 63 | 1018.4 |
| 20260507080537 | 44 | 360 | 4.0 | 6.0 | 0.00 | 0.00 | 0.00 | 63 | 1018.4 |
| 20260507080052 | 44 | 360 | 3.0 | 6.0 | 0.00 | 0.00 | 0.00 | 63 | 1018.5 |
| 20260507075538 | 44 | 360 | 3.0 | 6.0 | 0.00 | 0.00 | 0.00 | 62 | 1018.5 |
| 20260507075038 | 44 | 360 | 3.0 | 6.0 | 0.00 | 0.00 | 0.00 | 62 | 1018.5 |
| 20260507074601 | 44 | 360 | 5.0 | 6.0 | 0.00 | 0.00 | 0.00 | 62 | 1018.5 |
| 20260507074038 | 44 | 360 | 4.0 | 6.0 | 0.00 | 0.00 | 0.00 | 62 | 1018.5 |
| 20260507073540 | 44 | 360 | 4.0 | 6.0 | 0.00 | 0.00 | 0.00 | 62 | 1018.6 |
| 20260507073050 | 45 | 360 | 2.0 | 4.0 | 0.00 | 0.00 | 0.00 | 61 | 1018.7 |
| 20260507072538 | 45 | 360 | 2.0 | 4.0 | 0.00 | 0.00 | 0.00 | 61 | 1018.8 |
| 20260507072038 | 45 | 360 | 2.0 | 4.0 | 0.00 | 0.00 | 0.00 | 60 | 1018.9 |
| 20260507071550 | 45 | 360 | 2.0 | 4.0 | 0.00 | 0.00 | 0.00 | 60 | 1018.9 |
| 20260507071040 | 45 | 360 | 2.0 | 3.0 | 0.00 | 0.00 | 0.00 | 59 | 1018.8 |
| 20260507070538 | 45 | 360 | 2.0 | 3.0 | 0.00 | 0.00 | 0.00 | 59 | 1018.8 |
| 20260507070051 | 45 | 360 | 2.0 | 3.0 | 0.00 | 0.00 | 0.00 | 58 | 1018.8 |
| 20260507065542 | 45 | 360 | 1.0 | 3.0 | 0.00 | 0.00 | 0.00 | 57 | 1019.1 |
| 20260507065038 | 46 | 360 | 1.0 | 4.0 | 0.00 | 0.00 | 0.00 | 57 | 1019.0 |
| 20260507064551 | 46 | 0 | 0.0 | 4.0 | 0.00 | 0.00 | 0.00 | 56 | 1019.0 |
| 20260507064041 | 46 | 360 | 2.0 | 4.0 | 0.00 | 0.00 | 0.00 | 56 | 1018.9 |
| 20260507063538 | 46 | 0 | 1.0 | 4.0 | 0.00 | 0.00 | 0.00 | 56 | 1018.9 |
| 20260507063053 | 47 | 360 | 2.0 | 4.0 | 0.00 | 0.00 | 0.00 | 56 | 1018.9 |
| 20260507062539 | 47 | 360 | 1.0 | 3.0 | 0.00 | 0.00 | 0.00 | 55 | 1018.9 |
| 20260507062040 | 47 | 0 | 0.0 | 2.0 | 0.00 | 0.00 | 0.00 | 55 | 1018.9 |
| 20260507061548 | 47 | 0 | 0.0 | 2.0 | 0.00 | 0.00 | 0.00 | 55 | 1018.9 |
| 20260507061041 | 47 | 0 | 0.0 | 2.0 | 0.00 | 0.00 | 0.00 | 55 | 1018.9 |
| 20260507060541 | 48 | 0 | 0.0 | 2.0 | 0.00 | 0.00 | 0.00 | 55 | 1019.0 |
| 20260507060047 | 48 | 360 | 0.0 | 2.0 | 0.00 | 0.00 | 0.00 | 55 | 1018.9 |
| 20260507055541 | 48 | 0 | 0.0 | 3.0 | 0.00 | 0.00 | 0.00 | 55 | 1018.9 |
| 20260507055045 | 48 | 0 | 0.0 | 3.0 | 0.00 | 0.00 | 0.00 | 55 | 1018.9 |
| 20260507054611 | 48 | 360 | 1.0 | 4.0 | 0.00 | 0.00 | 0.00 | 54 | 1018.9 |
| 20260507054039 | 49 | 78 | 1.0 | 4.0 | 0.00 | 0.00 | 0.00 | 54 | 1019.0 |
| 20260507053540 | 49 | 86 | 1.0 | 4.0 | 0.00 | 0.00 | 0.00 | 53 | 1019.0 |
| 20260507053053 | 49 | 96 | 3.0 | 4.0 | 0.00 | 0.00 | 0.00 | 53 | 1019.0 |
| 20260507052539 | 49 | 82 | 2.0 | 4.0 | 0.00 | 0.00 | 0.00 | 52 | 1019.0 |
| 20260507052041 | 49 | 72 | 2.0 | 4.0 | 0.00 | 0.00 | 0.00 | 51 | 1018.9 |
| 20260507051552 | 49 | 79 | 2.0 | 5.0 | 0.00 | 0.00 | 0.00 | 51 | 1019.0 |
| 20260507051038 | 49 | 360 | 2.0 | 6.0 | 0.00 | 0.00 | 0.00 | 50 | 1018.9 |
| 20260507050541 | 49 | 82 | 3.0 | 6.0 | 0.00 | 0.00 | 0.00 | 50 | 1018.9 |
| 20260507050057 | 49 | 76 | 3.0 | 6.0 | 0.00 | 0.00 | 0.00 | 50 | 1018.9 |
| 20260507045543 | 49 | 63 | 2.0 | 5.0 | 0.00 | 0.00 | 0.00 | 50 | 1019.1 |
| 20260507045042 | 49 | 360 | 2.0 | 5.0 | 0.00 | 0.00 | 0.00 | 51 | 1019.1 |
| 20260507044556 | 49 | 360 | 3.0 | 5.0 | 0.00 | 0.00 | 0.00 | 52 | 1019.0 |
| 20260507044040 | 50 | 360 | 3.0 | 5.0 | 0.00 | 0.00 | 0.00 | 52 | 1019.0 |
| 20260507043541 | 50 | 86 | 2.0 | 4.0 | 0.00 | 0.00 | 0.00 | 51 | 1018.9 |
| 20260507043049 | 50 | 360 | 1.0 | 4.0 | 0.00 | 0.00 | 0.00 | 51 | 1019.0 |
| 20260507042540 | 50 | 360 | 1.0 | 4.0 | 0.00 | 0.00 | 0.00 | 50 | 1019.2 |
| 20260507042039 | 50 | 70 | 2.0 | 4.0 | 0.00 | 0.00 | 0.00 | 50 | 1019.1 |
| 20260507041549 | 50 | 82 | 1.0 | 4.0 | 0.00 | 0.00 | 0.00 | 49 | 1019.1 |
| 20260507041037 | 50 | 360 | 2.0 | 5.0 | 0.00 | 0.00 | 0.00 | 49 | 1018.9 |
| 20260507040541 | 51 | 360 | 2.0 | 5.0 | 0.00 | 0.00 | 0.00 | 48 | 1018.8 |
| 20260507040054 | 51 | 360 | 2.0 | 5.0 | 0.00 | 0.00 | 0.00 | 48 | 1018.8 |
| 20260507035538 | 51 | 360 | 3.0 | 6.0 | 0.00 | 0.00 | 0.00 | 47 | 1018.9 |
| 20260507035038 | 51 | 360 | 3.0 | 8.0 | 0.00 | 0.00 | 0.00 | 46 | 1018.7 |
| 20260507034557 | 52 | 360 | 5.0 | 8.0 | 0.00 | 0.00 | 0.00 | 46 | 1018.5 |
| 20260507034038 | 52 | 360 | 5.0 | 8.0 | 0.00 | 0.00 | 0.00 | 45 | 1018.7 |
| 20260507033539 | 53 | 360 | 4.0 | 6.0 | 0.00 | 0.00 | 0.00 | 44 | 1018.6 |
| 20260507033056 | 53 | 360 | 4.0 | 5.0 | 0.00 | 0.00 | 0.00 | 42 | 1018.7 |
| 20260507032538 | 53 | 360 | 3.0 | 5.0 | 0.00 | 0.00 | 0.00 | 42 | 1018.7 |
| 20260507032037 | 54 | 360 | 3.0 | 5.0 | 0.00 | 0.00 | 0.00 | 42 | 1018.7 |
| 20260507031604 | 54 | 360 | 3.0 | 5.0 | 0.00 | 0.00 | 0.00 | 43 | 1018.7 |
| 20260507031038 | 55 | 360 | 1.0 | 5.0 | 0.00 | 0.00 | 0.00 | 43 | 1018.6 |
| 20260507030541 | 55 | 360 | 3.0 | 5.0 | 0.00 | 0.00 | 0.00 | 41 | 1018.5 |
| 20260507030054 | 56 | 360 | 3.0 | 5.0 | 0.00 | 0.00 | 0.00 | 41 | 1018.6 |
| 20260507025538 | 56 | 360 | 3.0 | 5.0 | 0.00 | 0.00 | 0.00 | 40 | 1018.5 |
| 20260507025038 | 57 | 360 | 1.0 | 8.0 | 0.00 | 0.00 | 0.00 | 39 | 1018.4 |
| 20260507024547 | 57 | 0 | 1.0 | 9.0 | 0.00 | 0.00 | 0.00 | 38 | 1018.3 |
| 20260507024038 | 58 | 360 | 3.0 | 9.0 | 0.00 | 0.00 | 0.00 | 37 | 1018.1 |
| 20260507023538 | 59 | 360 | 4.0 | 9.0 | 0.00 | 0.00 | 0.00 | 36 | 1018.1 |
| 20260507023103 | 59 | 360 | 3.0 | 6.0 | 0.00 | 0.00 | 0.00 | 37 | 1018.1 |
| 20260507022539 | 60 | 360 | 2.0 | 6.0 | 0.00 | 0.00 | 0.00 | 36 | 1018.2 |
| 20260507022038 | 60 | 360 | 1.0 | 5.0 | 0.00 | 0.00 | 0.00 | 36 | 1018.2 |
| 20260507021557 | 61 | 0 | 2.0 | 5.0 | 0.00 | 0.00 | 0.00 | 34 | 1018.2 |
| 20260507021037 | 61 | 179 | 1.0 | 5.0 | 0.00 | 0.00 | 0.00 | 34 | 1018.4 |
| 20260507020542 | 62 | 360 | 1.0 | 5.0 | 0.00 | 0.00 | 0.00 | 34 | 1018.3 |
| 20260507020056 | 62 | 164 | 3.0 | 5.0 | 0.00 | 0.00 | 0.00 | 33 | 1018.3 |
| 20260507015537 | 63 | 173 | 1.0 | 5.0 | 0.00 | 0.00 | 0.00 | 34 | 1018.3 |
| 20260507015038 | 64 | 146 | 1.0 | 6.0 | 0.00 | 0.00 | 0.00 | 35 | 1018.4 |
| 20260507014600 | 64 | 360 | 2.0 | 7.0 | 0.00 | 0.00 | 0.00 | 32 | 1018.3 |
| 20260507014041 | 64 | 173 | 3.0 | 7.0 | 0.00 | 0.00 | 0.00 | 32 | 1018.3 |
| 20260507013537 | 64 | 159 | 2.0 | 6.0 | 0.00 | 0.00 | 0.00 | 31 | 1018.4 |
| 20260507013050 | 65 | 134 | 0.0 | 6.0 | 0.00 | 0.00 | 0.00 | 30 | 1018.4 |
| 20260507012539 | 65 | 180 | 3.0 | 6.0 | 0.00 | 0.00 | 0.00 | 28 | 1018.5 |
| 20260507012038 | 65 | 173 | 1.0 | 5.0 | 0.00 | 0.00 | 0.00 | 27 | 1018.5 |
| 20260507011549 | 66 | 202 | 2.0 | 6.0 | 0.00 | 0.00 | 0.00 | 27 | 1018.5 |
| 20260507011038 | 66 | 264 | 0.0 | 8.0 | 0.00 | 0.00 | 0.00 | 28 | 1018.5 |
| 20260507010539 | 66 | 194 | 3.0 | 8.0 | 0.00 | 0.00 | 0.00 | 27 | 1018.5 |
| 20260507010050 | 66 | 213 | 5.0 | 8.0 | 0.00 | 0.00 | 0.00 | 27 | 1018.6 |
| 20260507005538 | 66 | 0 | 1.0 | 5.0 | 0.00 | 0.00 | 0.00 | 28 | 1018.6 |
| 20260507005038 | 66 | 161 | 2.0 | 6.0 | 0.00 | 0.00 | 0.00 | 28 | 1018.7 |
| 20260507004554 | 66 | 0 | 1.0 | 6.0 | 0.00 | 0.00 | 0.00 | 28 | 1018.6 |
| 20260507004038 | 66 | 190 | 2.0 | 8.0 | 0.00 | 0.00 | 0.00 | 27 | 1018.7 |
| 20260507003541 | 66 | 153 | 3.0 | 8.0 | 0.00 | 0.00 | 0.00 | 28 | 1018.6 |
| 20260507003053 | 66 | 200 | 2.0 | 7.0 | 0.00 | 0.00 | 0.00 | 28 | 1018.6 |
| 20260507002538 | 66 | 220 | 3.0 | 8.0 | 0.00 | 0.00 | 0.00 | 28 | 1018.6 |
| 20260507002038 | 65 | 257 | 1.0 | 8.0 | 0.00 | 0.00 | 0.00 | 27 | 1018.6 |
| 20260507001555 | 65 | 234 | 5.0 | 10.0 | 0.00 | 0.00 | 0.00 | 29 | 1018.6 |
| 20260507001037 | 65 | 214 | 5.0 | 10.0 | 0.00 | 0.00 | 0.00 | 28 | 1018.6 |
| 20260507000541 | 65 | 195 | 4.0 | 9.0 | 0.00 | 0.00 | 0.00 | 29 | 1018.6 |
| 20260507000052 | 65 | 222 | 3.0 | 13.0 | 0.00 | 0.00 | 0.00 | 28 | 1018.6 |
| 20260506235537 | 65 | 238 | 4.0 | 13.0 | 0.00 | 0.00 | 0.00 | 28 | 1018.6 |
| 20260506235038 | 65 | 213 | 8.0 | 13.0 | 0.00 | 0.00 | 0.00 | 29 | 1018.6 |
| 20260506234552 | 65 | 240 | 4.0 | 12.0 | 0.00 | 0.00 | 0.00 | 29 | 1018.6 |
| 20260506234038 | 65 | 235 | 5.0 | 12.0 | 0.00 | 0.00 | 0.00 | 30 | 1018.5 |
| 20260506233539 | 64 | 272 | 3.0 | 10.0 | 0.00 | 0.00 | 0.00 | 29 | 1018.6 |
| 20260506233108 | 64 | 164 | 2.0 | 10.0 | 0.00 | 0.00 | 0.00 | 30 | 1018.5 |
| 20260506232540 | 64 | 296 | 4.0 | 14.0 | 0.00 | 0.00 | 0.00 | 29 | 1018.5 |
| 20260506232040 | 64 | 336 | 7.0 | 14.0 | 0.00 | 0.00 | 0.00 | 30 | 1018.6 |
| 20260506231550 | 65 | 261 | 7.0 | 13.0 | 0.00 | 0.00 | 0.00 | 29 | 1018.5 |
| 20260506231038 | 64 | 189 | 7.0 | 13.0 | 0.00 | 0.00 | 0.00 | 29 | 1018.5 |
| 20260506230540 | 64 | 244 | 7.0 | 14.0 | 0.00 | 0.00 | 0.00 | 29 | 1018.6 |
| 20260506230056 | 64 | 272 | 5.0 | 14.0 | 0.00 | 0.00 | 0.00 | 28 | 1018.5 |
| 20260506225539 | 64 | 279 | 7.0 | 14.0 | 0.00 | 0.00 | 0.00 | 28 | 1018.7 |
| 20260506225040 | 64 | 277 | 8.0 | 16.0 | 0.00 | 0.00 | 0.00 | 29 | 1018.5 |
| 20260506224548 | 64 | 290 | 6.0 | 16.0 | 0.00 | 0.00 | 0.00 | 30 | 1018.7 |
| 20260506224037 | 64 | 360 | 9.0 | 16.0 | 0.00 | 0.00 | 0.00 | 29 | 1018.7 |
| 20260506223540 | 64 | 360 | 4.0 | 15.0 | 0.00 | 0.00 | 0.00 | 28 | 1018.8 |
| 20260506223047 | 64 | 360 | 8.0 | 15.0 | 0.00 | 0.00 | 0.00 | 30 | 1018.7 |
| 20260506222540 | 64 | 322 | 5.0 | 14.0 | 0.00 | 0.00 | 0.00 | 30 | 1018.7 |
| 20260506222041 | 63 | 311 | 4.0 | 14.0 | 0.00 | 0.00 | 0.00 | 30 | 1018.9 |
| 20260506221548 | 63 | 329 | 7.0 | 16.0 | 0.00 | 0.00 | 0.00 | 29 | 1018.9 |
| 20260506221038 | 63 | 309 | 5.0 | 16.0 | 0.00 | 0.00 | 0.00 | 31 | 1018.9 |
| 20260506220539 | 63 | 261 | 6.0 | 19.0 | 0.00 | 0.00 | 0.00 | 31 | 1018.9 |
| 20260506220054 | 63 | 295 | 6.0 | 19.0 | 0.00 | 0.00 | 0.00 | 30 | 1018.9 |
| 20260506215542 | 63 | 277 | 14.0 | 19.0 | 0.00 | 0.00 | 0.00 | 30 | 1019.1 |
| 20260506215038 | 63 | 243 | 8.0 | 19.0 | 0.00 | 0.00 | 0.00 | 31 | 1019.2 |
| 20260506214550 | 63 | 253 | 8.0 | 19.0 | 0.00 | 0.00 | 0.00 | 31 | 1019.2 |
| 20260506214038 | 63 | 231 | 7.0 | 20.0 | 0.00 | 0.00 | 0.00 | 31 | 1019.2 |
| 20260506213537 | 63 | 250 | 10.0 | 21.0 | 0.00 | 0.00 | 0.00 | 31 | 1019.3 |
| 20260506213111 | 63 | 250 | 11.0 | 21.0 | 0.00 | 0.00 | 0.00 | 31 | 1019.2 |
| 20260506212540 | 63 | 249 | 10.0 | 21.0 | 0.00 | 0.00 | 0.00 | 31 | 1019.3 |
| 20260506212038 | 64 | 269 | 11.0 | 21.0 | 0.00 | 0.00 | 0.00 | 30 | 1019.3 |
| 20260506211549 | 64 | 273 | 10.0 | 19.0 | 0.00 | 0.00 | 0.00 | 31 | 1019.2 |
| 20260506211038 | 64 | 270 | 9.0 | 19.0 | 0.00 | 0.00 | 0.00 | 31 | 1019.2 |
| 20260506210538 | 63 | 307 | 9.0 | 20.0 | 0.00 | 0.00 | 0.00 | 29 | 1019.2 |
| 20260506210056 | 63 | 328 | 11.0 | 21.0 | 0.00 | 0.00 | 0.00 | 28 | 1019.2 |
| 20260506205543 | 64 | 319 | 12.0 | 21.0 | 0.00 | 0.00 | 0.00 | 28 | 1019.2 |
| 20260506205039 | 64 | 360 | 11.0 | 16.0 | 0.00 | 0.00 | 0.00 | 29 | 1019.1 |
| 20260506204551 | 63 | 299 | 10.0 | 16.0 | 0.00 | 0.00 | 0.00 | 30 | 1019.0 |
| 20260506204041 | 63 | 360 | 9.0 | 16.0 | 0.00 | 0.00 | 0.00 | 32 | 1019.1 |
| 20260506203538 | 62 | 293 | 3.0 | 21.0 | 0.00 | 0.00 | 0.00 | 32 | 1019.0 |